Time;durP1;ratioP1;P1;durP2;ratioP2;P2;SDS_P1;SDS_P2;PMS_P1;PMS_P2;Temp;Humidity;BMP_temperature;BMP_pressure;BME280_temperature;BME280_humidity;BME280_pressure;Samples;Min_cycle;Max_cycle;Signal;HPM_P1;HPM_P2
2022/04/07 00:02:22;;;;;;;2.67;1.20;;;;;;;8.81;79.19;99179.28;4975647;28;20019;-94
2022/04/07 00:05:22;;;;;;;;;;;;;;;;;;;;;
2022/04/07 00:08:20;;;;;;;2.78;1.20;;;;;;;8.76;79.61;99157.94;4980773;28;20470;-96
2022/04/07 00:20:17;;;;;;;;;;;;;;;;;;;;;
2022/04/07 00:29:29;;;;;;;5.55;1.20;;;;;;;8.66;78.24;99133.31;4831802;29;20045;-94
2022/04/07 00:32:27;;;;;;;;;;;;;;;;;;;;;
2022/04/07 00:35:27;;;;;;;4.93;1.20;;;;;;;8.63;78.48;99110.97;5094883;23;20066;-95
2022/04/07 00:38:18;;;;;;;;;;;;;;;;;;;;;
2022/04/07 00:40:46;;;;;;;4.00;1.52;;;;;;;8.69;77.85;99112.44;5005243;28;20046;-95
2022/04/07 00:47:07;;;;;;;;;;;;;;;;;;;;;
2022/04/07 00:50:23;;;;;;;2.97;1.10;;;;;;;8.69;78.23;99088.28;4962673;28;20070;-94
2022/04/07 00:53:06;;;;;;;4.93;1.40;;;;;;;8.64;78.01;99068.59;4972398;28;20051;-94
2022/04/07 00:56:30;;;;;;;;;;;;;;;;;;;;;
2022/04/07 01:02:43;;;;;;;;;;;;;;;;;;;;;
2022/04/07 01:05:41;;;;;;;4.22;1.27;;;;;;;8.71;77.72;99038.03;4897523;28;20071;-93
2022/04/07 01:08:33;;;;;;;4.43;1.60;;;;;;;8.68;77.96;99045.13;4914806;29;20055;-93
2022/04/07 01:14:43;;;;;;;4.97;1.27;;;;;;;8.65;78.39;99054.72;4991411;28;20097;-95
2022/04/07 01:17:20;;;;;;;;;;;;;;;;;;;;;
2022/04/07 01:19:46;;;;;;;5.65;1.45;;;;;;;8.64;78.71;99019.34;4990759;28;20098;-96
2022/04/07 01:22:35;;;;;;;4.47;1.50;;;;;;;8.67;78.57;99020.09;4986067;28;20494;-94
2022/04/07 01:25:01;;;;;;;5.72;1.42;;;;;;;8.61;78.88;99016.88;4991633;28;20430;-95
2022/04/07 01:28:09;;;;;;;7.35;1.63;;;;;;;8.67;78.58;99020.09;4994083;28;20081;-92
2022/04/07 01:30:52;;;;;;;5.35;1.63;;;;;;;8.63;78.44;99020.25;4947194;28;20265;-93
2022/04/07 01:34:11;;;;;;;7.00;1.58;;;;;;;8.57;79.08;99017.94;4995093;28;20103;-95
2022/04/07 01:36:53;;;;;;;;;;;;;;;;;;;;;
2022/04/07 01:39:25;;;;;;;;;;;;;;;8.61;78.45;98993.56;4996292;28;20086;-95
2022/04/07 01:41:56;;;;;;;5.72;1.60;;;;;;;8.62;78.20;98997.00;4988752;28;19914;-93
2022/04/07 01:45:37;;;;;;;;;;;;;;;;;;;;;
2022/04/07 01:48:16;;;;;;;;;;;;;;;;;;;;;
2022/04/07 01:51:27;;;;;;;;;;;;;;;;;;;;;
2022/04/07 01:54:16;;;;;;;6.38;1.60;;;;;;;8.61;77.49;98967.63;4997973;28;20106;-95
2022/04/07 02:00:56;;;;;;;;;;;;;;;;;;;;;
2022/04/07 02:03:24;;;;;;;3.63;1.20;;;;;;;8.65;77.35;98947.56;4901686;29;20113;-95
2022/04/07 02:06:24;;;;;;;6.28;1.60;;;;;;;8.63;77.70;98942.47;4987800;28;20042;-94
2022/04/07 02:09:19;;;;;;;8.45;1.70;;;;;;;8.63;77.66;98931.25;4970954;28;20533;-93
2022/04/07 02:13:23;;;;;;;4.22;1.20;;;;;;;8.67;77.32;98931.97;4994258;28;20030;-93
2022/04/07 02:15:33;;;;;;;3.83;1.20;;;;;;;8.74;77.03;98935.91;4949535;28;20249;-94
2022/04/07 02:18:20;;;;;;;6.57;1.40;;;;;;;8.78;76.92;98934.88;4992864;28;20026;-93
2022/04/07 02:21:23;;;;;;;5.55;1.25;;;;;;;8.77;77.38;98922.81;4993393;28;20030;-91
2022/04/07 02:23:58;;;;;;;;;;;;;;;;;;;;;
2022/04/07 02:26:42;;;;;;;4.72;1.20;;;;;;;8.71;77.39;98912.75;4996756;28;20094;-96
2022/04/07 02:32:30;;;;;;;;;;;;;;;;;;;;;
2022/04/07 02:41:35;;;;;;;8.27;1.50;;;;;;;8.69;77.30;98910.22;4968495;28;20047;-92
2022/04/07 02:44:31;;;;;;;6.68;1.60;;;;;;;8.70;77.23;98880.81;5004976;28;20117;-94
2022/04/07 02:48:01;;;;;;;;;;;;;;;;;;;;;
2022/04/07 02:50:27;;;;;;;5.45;1.63;;;;;;;8.70;76.86;98879.97;4993387;28;20061;-94
2022/04/07 02:53:16;;;;;;;;;;;;;;;;;;;;;
2022/04/07 02:56:47;;;;;;;;;;;;;;;;;;;;;
2022/04/07 02:59:39;;;;;;;6.57;1.50;;;;;;;8.71;76.44;98858.31;4999015;28;20459;-96
2022/04/07 03:02:08;;;;;;;;;;;;;;;8.73;76.11;98848.69;4970893;28;20039;-95
2022/04/07 03:08:40;;;;;;;5.22;1.52;;;;;;;8.77;75.85;98826.88;4952136;28;20022;-94
2022/04/07 03:14:28;;;;;;;5.55;1.63;;;;;;;8.76;75.51;98814.84;4890776;29;20130;-94
2022/04/07 03:17:02;;;;;;;5.60;1.70;;;;;;;8.78;75.37;98810.41;4897846;29;20037;-91
2022/04/07 03:19:57;;;;;;;9.15;1.60;;;;;;;8.84;75.35;98810.13;4900620;29;20162;-90
2022/04/07 03:22:22;;;;;;;5.68;1.70;;;;;;;8.88;74.83;98788.25;4892170;29;20059;-95
2022/04/07 03:24:53;;;;;;;7.63;1.58;;;;;;;8.90;74.84;98802.00;4884014;29;20037;-93
2022/04/07 03:27:21;;;;;;;7.37;1.50;;;;;;;8.95;74.51;98775.84;4883116;29;20037;-95
2022/04/07 03:33:33;;;;;;;6.28;1.55;;;;;;;8.97;74.06;98773.97;4885898;29;20115;-93
2022/04/07 03:36:18;;;;;;;3.42;1.27;;;;;;;9.00;73.93;98776.41;4887239;29;21625;-94
2022/04/07 03:38:51;;;;;;;6.93;1.50;;;;;;;9.03;73.34;98775.44;4904653;29;20444;-94
2022/04/07 03:41:39;;;;;;;4.18;1.40;;;;;;;9.04;73.52;98769.34;4959977;28;20049;-92
2022/04/07 03:44:09;;;;;;;8.07;1.80;;;;;;;9.00;73.42;98775.59;4951182;29;20042;-95
2022/04/07 03:47:15;;;;;;;6.32;1.40;;;;;;;9.04;73.33;98753.78;4949953;29;20039;-95
2022/04/07 03:49:49;;;;;;;7.85;2.10;;;;;;;9.05;72.80;98747.66;4838200;29;20046;-95
2022/04/07 03:52:42;;;;;;;5.00;1.30;;;;;;;9.02;72.89;98740.03;4842788;29;20041;-94
2022/04/07 03:55:32;;;;;;;;;;;;;;;;;;;;;
2022/04/07 04:01:56;;;;;;;;;;;;;;;;;;;;;
2022/04/07 04:04:22;;;;;;;5.72;1.60;;;;;;;9.05;72.90;98730.34;4975711;28;20125;-93
2022/04/07 04:07:17;;;;;;;;;;;;;;;;;;;;;
2022/04/07 04:09:48;;;;;;;5.88;1.20;;;;;;;9.09;72.59;98723.22;4922418;29;21081;-94
2022/04/07 04:12:19;;;;;;;5.70;1.50;;;;;;;9.11;72.56;98695.44;4993671;28;20125;-93
2022/04/07 04:14:44;;;;;;;5.03;1.30;;;;;;;9.09;72.58;98692.09;4993399;28;20054;-94
2022/04/07 04:17:31;;;;;;;;;;;;;;;;;;;;;
2022/04/07 04:20:01;;;;;;;5.03;1.40;;;;;;;9.11;71.96;98659.97;4992277;28;20122;-94
2022/04/07 04:22:37;;;;;;;4.97;1.40;;;;;;;9.13;71.88;98648.69;4989927;28;20089;-95
2022/04/07 04:25:31;;;;;;;;;;;;;;;;;;;;;
2022/04/07 04:28:17;;;;;;;4.40;1.17;;;;;;;9.15;72.00;98605.31;4995622;28;20117;-94
2022/04/07 04:31:24;;;;;;;;;;;;;;;;;;;;;
2022/04/07 04:33:54;;;;;;;3.75;1.02;;;;;;;9.05;72.05;98605.84;4997262;28;20086;-93
2022/04/07 04:36:30;;;;;;;4.53;1.30;;;;;;;9.06;71.90;98586.75;4989484;28;20047;-94
2022/04/07 04:39:16;;;;;;;;;;;;;;;;;;;;;
2022/04/07 04:41:52;;;;;;;4.88;1.10;;;;;;;9.13;71.49;98584.66;4988734;28;20149;-94
2022/04/07 04:44:52;;;;;;;5.57;1.10;;;;;;;9.16;71.37;98581.91;4990223;28;20058;-93
2022/04/07 04:47:45;;;;;;;;;;;;;;;;;;;;;
2022/04/07 04:53:35;;;;;;;5.03;1.00;;;;;;;9.24;71.79;98581.47;4965472;28;20034;-93
2022/04/07 04:56:06;;;;;;;2.17;0.88;;;;;;;9.24;72.42;98571.91;4962151;28;20402;-96
2022/04/07 04:58:34;;;;;;;3.65;1.10;;;;;;;9.18;73.10;98569.69;4976316;28;20018;-92
2022/04/07 05:01:08;;;;;;;3.80;1.67;;;;;;;9.16;74.45;98550.78;4988059;28;20030;-93
2022/04/07 05:03:34;;;;;;;3.60;1.48;;;;;;;9.11;75.17;98553.63;4985522;28;20023;-94
2022/04/07 05:05:59;;;;;;;3.70;0.93;;;;;;;9.09;75.33;98546.84;4980794;28;20037;-95
2022/04/07 05:08:31;;;;;;;2.17;0.80;;;;;;;9.04;75.36;98535.91;4980649;28;20038;-91
2022/04/07 05:10:57;;;;;;;5.70;0.98;;;;;;;8.96;75.68;98516.41;4987608;28;20084;-93
2022/04/07 05:13:24;;;;;;;2.75;0.85;;;;;;;8.91;76.39;98500.28;4981652;28;20035;-94
2022/04/07 05:15:50;;;;;;;3.40;1.25;;;;;;;8.85;77.06;98505.81;4980800;28;20045;-93
2022/04/07 05:18:15;;;;;;;2.38;1.02;;;;;;;8.82;77.41;98511.19;4984480;28;20537;-94
2022/04/07 05:20:50;;;;;;;2.35;1.15;;;;;;;8.77;77.74;98497.63;4982817;28;20084;-95
2022/04/07 05:23:18;;;;;;;2.95;1.30;;;;;;;8.76;77.75;98511.50;4980597;28;20030;-95
2022/04/07 05:25:45;;;;;;;3.97;1.40;;;;;;;8.74;78.13;98503.84;4983450;28;20045;-96
2022/04/07 05:28:13;;;;;;;4.25;1.30;;;;;;;8.73;78.18;98486.59;4968811;28;20026;-94
2022/04/07 05:30:41;;;;;;;2.88;1.23;;;;;;;8.75;78.46;98483.91;4982790;28;20101;-94
2022/04/07 05:33:17;;;;;;;3.30;1.10;;;;;;;8.72;78.20;98479.75;4989641;28;20022;-93
2022/04/07 05:35:42;;;;;;;3.28;1.30;;;;;;;8.72;78.78;98452.97;4981383;28;20121;-95
2022/04/07 05:38:08;;;;;;;3.60;1.20;;;;;;;8.75;78.79;98452.81;4979942;28;20058;-94
2022/04/07 05:40:33;;;;;;;2.30;1.08;;;;;;;8.74;78.94;98451.13;4983906;28;20094;-95
2022/04/07 05:43:01;;;;;;;3.40;1.33;;;;;;;8.74;78.92;98451.13;4969242;28;20026;-96
2022/04/07 05:45:26;;;;;;;2.65;1.27;;;;;;;8.72;79.07;98445.19;4984892;28;20059;-96
2022/04/07 05:47:52;;;;;;;4.00;1.40;;;;;;;8.72;79.95;98447.78;4984180;28;20074;-93
2022/04/07 05:50:20;;;;;;;2.63;1.23;;;;;;;8.68;80.52;98446.31;4979300;28;20416;-95
2022/04/07 05:52:45;;;;;;;4.35;1.60;;;;;;;8.59;81.69;98432.94;4983218;28;20110;-94
2022/04/07 05:55:13;;;;;;;4.22;1.45;;;;;;;8.53;81.76;98428.13;4981867;28;20106;-93
2022/04/07 05:57:48;;;;;;;5.18;1.55;;;;;;;8.46;82.80;98421.56;4987836;28;20023;-96
2022/04/07 06:00:17;;;;;;;4.95;1.60;;;;;;;8.45;82.43;98419.91;4991614;28;20035;-94
2022/04/07 06:02:43;;;;;;;3.67;1.58;;;;;;;8.44;82.90;98415.63;4969151;28;20065;-95
2022/04/07 06:05:26;;;;;;;6.25;2.13;;;;;;;8.40;83.27;98404.63;4990873;28;20014;-95
2022/04/07 06:08:05;;;;;;;2.95;1.50;;;;;;;8.43;82.73;98381.13;4985189;28;20033;-94
2022/04/07 06:10:30;;;;;;;4.97;2.28;;;;;;;8.43;82.96;98381.13;4982501;28;20034;-94
2022/04/07 06:12:56;;;;;;;3.58;1.80;;;;;;;8.42;82.67;98373.44;4982697;28;20019;-94
2022/04/07 06:15:21;;;;;;;4.60;1.98;;;;;;;8.41;83.19;98366.59;4983194;28;20393;-94
2022/04/07 06:17:47;;;;;;;4.30;1.90;;;;;;;8.37;83.08;98376.28;4981959;28;20153;-92
2022/04/07 06:20:14;;;;;;;4.90;2.00;;;;;;;8.35;83.03;98368.63;4982408;28;20050;-94
2022/04/07 06:22:41;;;;;;;5.82;1.80;;;;;;;8.35;83.22;98358.25;4978778;28;20474;-93
2022/04/07 06:25:09;;;;;;;6.47;1.80;;;;;;;8.34;83.20;98354.00;4984967;28;20022;-93
2022/04/07 06:27:39;;;;;;;3.15;1.70;;;;;;;8.28;83.50;98333.59;4983584;28;20045;-93
2022/04/07 06:30:07;;;;;;;4.15;1.90;;;;;;;8.28;83.83;98328.44;4979195;28;20080;-94
2022/04/07 06:32:32;;;;;;;4.68;1.92;;;;;;;8.32;83.60;98327.34;4984425;28;20030;-93
2022/04/07 06:35:00;;;;;;;3.53;1.63;;;;;;;8.30;83.60;98324.00;4981571;28;20057;-95
2022/04/07 06:37:26;;;;;;;4.13;1.60;;;;;;;8.27;83.67;98311.22;4984499;28;20474;-94
2022/04/07 06:39:58;;;;;;;4.90;1.52;;;;;;;8.30;83.67;98312.78;4981755;28;20085;-95
2022/04/07 06:42:23;;;;;;;5.20;1.58;;;;;;;8.27;83.80;98306.03;4982480;28;20110;-95
2022/04/07 06:44:51;;;;;;;3.92;1.30;;;;;;;8.23;84.11;98312.31;4980696;28;20126;-92
2022/04/07 06:47:20;;;;;;;3.72;1.20;;;;;;;8.26;84.11;98300.94;4963988;28;20038;-93
2022/04/07 06:49:50;;;;;;;5.63;1.30;;;;;;;8.24;84.14;98288.06;4958816;28;20027;-93
2022/04/07 06:52:16;;;;;;;3.50;1.20;;;;;;;8.25;83.89;98266.44;4978381;28;20026;-94
2022/04/07 06:54:41;;;;;;;3.10;1.30;;;;;;;8.24;84.34;98251.81;4983498;28;20022;-94
2022/04/07 06:57:06;;;;;;;3.80;1.25;;;;;;;8.22;84.51;98258.84;4978333;28;20033;-94
2022/04/07 06:59:32;;;;;;;2.65;1.17;;;;;;;8.23;84.27;98250.16;4984293;28;20101;-95
2022/04/07 07:01:57;;;;;;;4.18;1.20;;;;;;;8.24;84.40;98243.22;4982420;28;20421;-94
2022/04/07 07:04:22;;;;;;;4.18;1.25;;;;;;;8.24;84.15;98235.44;4984527;28;20497;-94
2022/04/07 07:06:47;;;;;;;4.47;1.30;;;;;;;8.19;84.65;98227.97;4988251;28;20038;-95
2022/04/07 07:09:13;;;;;;;6.05;1.20;;;;;;;8.23;84.46;98219.06;4985011;28;20386;-94
2022/04/07 07:11:38;;;;;;;3.13;1.20;;;;;;;8.20;85.09;98203.69;4967791;28;20018;-94
2022/04/07 07:14:06;;;;;;;4.18;1.30;;;;;;;8.18;85.21;98196.03;4991101;28;20378;-94
2022/04/07 07:16:31;;;;;;;2.20;1.20;;;;;;;8.16;85.22;98189.28;4982236;28;20030;-95
2022/04/07 07:18:57;;;;;;;3.38;1.10;;;;;;;8.17;85.01;98188.38;4984087;28;20041;-94
2022/04/07 07:21:22;;;;;;;3.20;1.15;;;;;;;8.14;85.60;98173.00;4983854;28;20086;-93
2022/04/07 07:23:47;;;;;;;4.28;1.10;;;;;;;8.11;85.69;98173.16;4984439;28;20022;-95
2022/04/07 07:26:13;;;;;;;2.78;1.00;;;;;;;8.10;85.67;98162.00;4983101;28;20031;-94
2022/04/07 07:28:38;;;;;;;5.95;1.40;;;;;;;8.09;86.00;98152.56;4982138;28;20022;-96
2022/04/07 07:31:04;;;;;;;3.60;1.20;;;;;;;8.10;85.90;98136.09;4983036;28;20357;-94
2022/04/07 07:33:29;;;;;;;3.58;1.20;;;;;;;8.05;86.56;98132.94;4982084;28;20382;-94
2022/04/07 07:35:54;;;;;;;2.22;1.00;;;;;;;8.08;86.54;98117.22;4966024;28;20070;-95
2022/04/07 07:38:27;;;;;;;4.30;1.30;;;;;;;8.09;86.72;98102.50;4981031;28;20466;-94
2022/04/07 07:40:52;;;;;;;3.88;1.40;;;;;;;8.14;86.74;98100.50;4981433;28;20035;-94
2022/04/07 07:43:18;;;;;;;2.85;1.48;;;;;;;8.19;86.87;98122.59;4979546;28;20117;-94
2022/04/07 07:45:43;;;;;;;2.92;1.58;;;;;;;8.21;87.07;98145.78;4990999;28;20354;-93
2022/04/07 07:48:24;;;;;;;;;;;;;;;;;;;;;
2022/04/07 07:50:50;;;;;;;1.45;0.63;;;;;;;7.92;82.84;98191.53;4991844;28;20094;-88
2022/04/07 08:14:48;;;;;;;2.25;0.60;;;;;;;5.68;85.77;98266.84;4976674;28;20509;-92
2022/04/07 08:17:14;;;;;;;0.82;0.50;;;;;;;5.61;85.91;98267.16;4981849;28;20022;-93
2022/04/07 08:19:40;;;;;;;1.50;0.50;;;;;;;5.59;86.05;98257.78;4978266;28;20120;-92
2022/04/07 08:22:06;;;;;;;2.50;0.60;;;;;;;5.60;86.98;98268.06;4980617;28;20363;-91
2022/04/07 08:24:31;;;;;;;1.83;0.60;;;;;;;5.66;87.45;98263.50;4980328;28;20026;-92
2022/04/07 08:26:57;;;;;;;5.45;0.75;;;;;;;5.77;87.56;98261.25;4984265;28;20085;-94
2022/04/07 08:29:22;;;;;;;2.20;0.55;;;;;;;5.92;88.02;98268.25;4984228;28;20171;-90
2022/04/07 08:31:51;;;;;;;5.07;0.70;;;;;;;6.04;87.74;98266.00;4982965;28;20442;-90
2022/04/07 08:34:17;;;;;;;3.35;0.77;;;;;;;6.18;87.99;98260.19;4981331;28;20030;-91
2022/04/07 08:36:42;;;;;;;2.85;0.70;;;;;;;6.32;88.43;98246.59;4981589;28;20030;-90
2022/04/07 08:39:07;;;;;;;2.17;0.70;;;;;;;6.41;87.63;98235.78;4980011;28;20126;-89
2022/04/07 08:41:34;;;;;;;2.00;0.80;;;;;;;6.49;87.55;98238.81;4980751;28;20026;-89
2022/04/07 08:44:00;;;;;;;2.20;0.98;;;;;;;6.64;87.61;98241.53;4979041;28;20038;-89
2022/04/07 08:46:27;;;;;;;3.50;1.00;;;;;;;6.79;87.45;98245.06;4979223;28;20406;-90
2022/04/07 08:48:55;;;;;;;1.42;0.95;;;;;;;6.87;87.02;98239.47;4987250;28;20386;-90
2022/04/07 08:51:21;;;;;;;3.10;0.80;;;;;;;6.93;86.79;98239.19;4979872;28;20045;-89
2022/04/07 08:53:46;;;;;;;5.20;1.25;;;;;;;6.99;86.77;98216.41;4978589;28;20030;-88
2022/04/07 08:56:13;;;;;;;3.38;0.90;;;;;;;7.07;86.37;98212.59;4977825;28;20022;-90
2022/04/07 08:58:38;;;;;;;3.28;0.68;;;;;;;7.12;86.38;98221.78;4982961;28;20468;-91
2022/04/07 09:01:04;;;;;;;2.63;0.63;;;;;;;7.16;86.60;98226.78;4984135;28;20118;-91
2022/04/07 09:03:29;;;;;;;2.20;0.80;;;;;;;7.27;86.20;98229.59;4984365;28;20126;-91
2022/04/07 09:05:59;;;;;;;3.90;0.95;;;;;;;7.39;86.59;98233.28;4984636;28;20437;-90
2022/04/07 09:08:36;;;;;;;2.35;0.80;;;;;;;7.50;86.40;98243.03;4986824;28;20038;-89
2022/04/07 09:11:04;;;;;;;3.15;0.75;;;;;;;7.63;86.10;98245.78;4984454;28;20042;-90
2022/04/07 09:13:30;;;;;;;3.17;0.88;;;;;;;7.70;86.20;98232.41;4992172;28;20045;-90
2022/04/07 09:15:56;;;;;;;2.70;0.90;;;;;;;7.75;85.87;98229.56;5009489;28;20052;-90
2022/04/07 09:18:24;;;;;;;2.15;0.77;;;;;;;7.74;85.96;98233.09;5010419;28;20319;-90
2022/04/07 09:20:49;;;;;;;3.10;0.90;;;;;;;7.78;85.72;98225.97;5009762;28;20025;-89
2022/04/07 09:23:17;;;;;;;3.78;0.90;;;;;;;7.83;86.17;98232.56;5010217;28;20454;-91
2022/04/07 09:25:47;;;;;;;4.50;1.00;;;;;;;7.96;85.78;98232.69;5009998;28;20032;-91
2022/04/07 09:28:23;;;;;;;3.15;0.90;;;;;;;8.05;85.92;98242.50;5009902;28;20037;-89
2022/04/07 09:30:49;;;;;;;3.00;1.00;;;;;;;8.16;85.44;98241.06;5005367;28;20029;-91
2022/04/07 09:33:29;;;;;;;4.72;1.30;;;;;;;8.27;85.46;98235.28;5011156;28;20473;-92
2022/04/07 09:36:02;;;;;;;4.40;1.17;;;;;;;8.43;84.44;98243.81;5011895;28;20443;-91
2022/04/07 09:38:29;;;;;;;3.92;1.20;;;;;;;8.57;84.55;98247.38;5011995;28;20022;-91
2022/04/07 09:41:05;;;;;;;4.65;1.38;;;;;;;8.72;84.20;98250.78;5012139;28;20032;-90
2022/04/07 09:43:42;;;;;;;4.00;1.20;;;;;;;8.84;82.83;98252.66;5011076;28;20018;-91
2022/04/07 09:46:09;;;;;;;3.42;1.10;;;;;;;8.90;82.00;98257.47;5013068;28;20069;-89
2022/04/07 09:48:36;;;;;;;4.15;1.10;;;;;;;8.88;80.29;98246.34;5010501;28;20397;-90
2022/04/07 09:51:03;;;;;;;4.80;1.00;;;;;;;8.90;80.65;98260.06;5011990;28;20026;-91
2022/04/07 09:53:36;;;;;;;3.97;0.80;;;;;;;8.91;79.06;98245.34;5013549;28;20026;-92
2022/04/07 09:56:02;;;;;;;2.50;0.80;;;;;;;8.89;77.46;98255.78;5014116;28;20093;-89
2022/04/07 09:58:28;;;;;;;5.10;1.02;;;;;;;8.86;77.30;98237.00;5012988;28;20030;-89
2022/04/07 10:00:54;;;;;;;3.75;0.88;;;;;;;8.87;77.14;98244.72;5011205;28;20030;-90
2022/04/07 10:03:20;;;;;;;7.10;0.98;;;;;;;8.96;78.36;98238.13;5013030;28;20064;-89
2022/04/07 10:05:47;;;;;;;3.60;0.80;;;;;;;9.11;78.05;98231.16;5013566;28;20026;-92
2022/04/07 10:08:16;;;;;;;3.20;1.00;;;;;;;9.24;76.29;98237.22;5013686;28;20061;-91
2022/04/07 10:10:42;;;;;;;4.38;0.98;;;;;;;9.31;73.75;98249.84;5012724;28;20061;-92
2022/04/07 10:13:08;;;;;;;3.30;0.85;;;;;;;9.30;71.63;98261.13;5008546;28;20061;-91
2022/04/07 10:15:35;;;;;;;5.03;0.90;;;;;;;9.35;71.81;98253.91;5011165;28;20101;-91
2022/04/07 10:18:05;;;;;;;6.18;1.13;;;;;;;9.51;71.43;98244.22;4994268;28;20056;-90
2022/04/07 10:20:39;;;;;;;3.97;1.00;;;;;;;9.69;71.52;98262.16;5012373;28;20032;-91
2022/04/07 10:23:10;;;;;;;4.80;0.80;;;;;;;9.85;68.64;98262.84;4989607;28;20038;-91
2022/04/07 10:25:45;;;;;;;3.00;0.60;;;;;;;9.98;67.93;98251.66;5012860;28;20028;-90
2022/04/07 10:28:11;;;;;;;5.60;0.90;;;;;;;10.08;66.16;98257.91;5013030;28;20061;-90
2022/04/07 10:30:50;;;;;;;4.75;1.20;;;;;;;10.17;67.74;98257.31;5012871;28;20096;-93
2022/04/07 10:33:40;;;;;;;6.47;0.93;;;;;;;10.30;66.74;98266.88;5011935;28;20045;-92
2022/04/07 10:36:09;;;;;;;4.18;0.90;;;;;;;10.43;65.25;98272.97;4994132;28;20029;-92
2022/04/07 10:38:39;;;;;;;5.03;0.93;;;;;;;10.59;64.35;98267.59;5012221;28;20080;-90
2022/04/07 10:41:05;;;;;;;4.00;0.70;;;;;;;10.68;64.58;98286.09;5011504;28;20029;-90
2022/04/07 10:43:30;;;;;;;9.05;0.95;;;;;;;10.74;64.67;98280.47;5012656;28;20030;-90
2022/04/07 10:46:01;;;;;;;4.35;0.85;;;;;;;10.80;65.13;98279.22;5011306;28;20046;-91
2022/04/07 10:48:30;;;;;;;10.52;1.10;;;;;;;10.78;61.28;98319.16;5012533;28;20034;-91
2022/04/07 10:51:03;;;;;;;5.47;0.95;;;;;;;10.70;61.81;98308.47;5012680;28;20022;-91
2022/04/07 10:53:36;;;;;;;5.03;0.80;;;;;;;10.56;61.97;98313.75;5012708;28;20052;-90
2022/04/07 10:56:32;;;;;;;4.60;0.90;;;;;;;10.34;60.43;98335.94;5012380;28;20411;-91
2022/04/07 10:59:14;;;;;;;7.10;1.20;;;;;;;10.17;60.90;98318.81;5012712;28;20021;-92
2022/04/07 11:01:41;;;;;;;3.60;0.80;;;;;;;10.16;56.76;98349.19;5018390;28;20034;-94
2022/04/07 11:04:16;;;;;;;6.72;1.13;;;;;;;10.12;57.11;98337.31;5014326;28;20026;-94
2022/04/07 11:07:19;;;;;;;2.42;0.82;;;;;;;10.21;57.94;98345.47;5012788;28;20028;-93
2022/04/07 11:10:03;;;;;;;4.05;0.88;;;;;;;10.32;57.83;98333.44;5015089;28;20037;-92
2022/04/07 11:12:40;;;;;;;5.70;1.10;;;;;;;10.50;57.04;98335.81;5012919;28;20492;-92
2022/04/07 11:15:05;;;;;;;4.75;0.98;;;;;;;10.52;57.49;98336.50;5013440;28;20097;-92
2022/04/07 11:17:34;;;;;;;9.30;1.35;;;;;;;10.53;58.31;98351.19;5013861;28;20760;-93
2022/04/07 11:20:19;;;;;;;7.38;1.30;;;;;;;10.36;58.32;98364.41;5012640;28;20069;-94
2022/04/07 11:22:58;;;;;;;5.95;1.00;;;;;;;10.35;58.04;98365.34;5011361;28;20164;-93
2022/04/07 11:25:31;;;;;;;8.55;1.00;;;;;;;10.41;59.04;98358.03;5013818;28;20478;-94
2022/04/07 11:28:15;;;;;;;8.23;1.10;;;;;;;10.51;57.88;98362.63;5016358;28;20041;-90
2022/04/07 11:30:48;;;;;;;4.90;0.95;;;;;;;10.56;57.41;98428.16;5013602;28;20488;-93
2022/04/07 11:33:28;;;;;;;6.35;0.93;;;;;;;10.53;57.24;98373.75;5013568;28;20124;-92
2022/04/07 11:35:59;;;;;;;7.13;1.38;;;;;;;10.52;56.32;98385.09;5012023;28;20056;-91
2022/04/07 11:38:25;;;;;;;3.70;0.98;;;;;;;10.37;56.06;98398.13;5012076;28;20022;-94
2022/04/07 11:41:11;;;;;;;6.85;1.20;;;;;;;10.38;56.24;98410.22;5012807;28;20057;-93
2022/04/07 11:43:46;;;;;;;7.82;1.25;;;;;;;10.15;57.81;98407.28;5012093;28;20022;-96
2022/04/07 11:46:24;;;;;;;6.25;1.10;;;;;;;10.13;57.37;98398.75;5012051;28;20037;-95
2022/04/07 11:48:50;;;;;;;6.97;1.10;;;;;;;10.06;57.42;98426.06;5009095;28;20389;-93
2022/04/07 11:51:17;;;;;;;8.63;1.33;;;;;;;9.97;57.09;98422.25;5012487;28;20026;-95
2022/04/07 11:53:46;;;;;;;9.68;1.20;;;;;;;9.94;57.78;98431.97;4994440;28;20025;-94
2022/04/07 11:56:17;;;;;;;11.10;1.55;;;;;;;9.84;58.28;98440.34;5012277;28;20045;-92
2022/04/07 11:58:44;;;;;;;7.97;1.60;;;;;;;9.80;58.15;98436.28;5010337;28;20026;-95
2022/04/07 12:01:11;;;;;;;5.75;1.30;;;;;;;9.81;57.44;98427.56;5012952;28;20424;-92
2022/04/07 12:03:38;;;;;;;9.32;1.00;;;;;;;9.81;59.42;98424.16;4993078;28;20704;-91
2022/04/07 12:06:04;;;;;;;6.28;1.27;;;;;;;9.85;56.81;98443.78;5009450;28;20083;-92
2022/04/07 12:08:29;;;;;;;6.55;1.10;;;;;;;9.81;57.31;98445.75;5014881;28;20051;-94
2022/04/07 12:10:55;;;;;;;6.68;1.20;;;;;;;9.82;56.71;98444.81;5142189;23;20517;-96
2022/04/07 12:13:20;;;;;;;8.10;1.10;;;;;;;9.83;57.33;98440.44;4970121;28;20031;-93
2022/04/07 12:15:46;;;;;;;6.80;1.00;;;;;;;9.84;57.27;98442.97;4990818;28;20022;-91
2022/04/07 12:18:11;;;;;;;5.75;1.00;;;;;;;9.85;57.18;98449.81;4989380;28;20412;-90
2022/04/07 12:20:38;;;;;;;5.53;1.05;;;;;;;9.87;56.78;98442.78;4985583;28;20101;-90
2022/04/07 12:23:07;;;;;;;7.47;1.48;;;;;;;9.94;55.50;98463.16;4989788;28;20092;-90
2022/04/07 12:25:32;;;;;;;7.07;1.20;;;;;;;9.90;56.35;98470.31;4980534;28;20110;-92
2022/04/07 12:28:12;;;;;;;8.98;1.20;;;;;;;9.85;56.71;98469.75;4986287;28;20434;-89
2022/04/07 12:30:47;;;;;;;6.90;1.10;;;;;;;9.79;57.13;98481.34;4985291;28;20026;-91
2022/04/07 12:33:39;;;;;;;5.30;1.10;;;;;;;9.74;57.04;98467.78;4980695;28;20042;-87
2022/04/07 12:36:08;;;;;;;7.75;1.48;;;;;;;9.70;56.30;98492.31;4984882;28;20014;-90
2022/04/07 12:38:34;;;;;;;6.40;1.25;;;;;;;9.67;56.22;98479.50;4991309;28;20169;-88
2022/04/07 12:41:16;;;;;;;9.75;1.50;;;;;;;9.71;57.10;98479.22;4985116;28;20113;-87
2022/04/07 12:43:50;;;;;;;;;;;;;;;9.78;57.25;98458.91;4980711;28;20089;-92
2022/04/07 12:46:20;;;;;;;10.77;1.60;;;;;;;9.79;56.43;98480.53;4986144;28;19918;-91
2022/04/07 12:49:06;;;;;;;8.13;1.27;;;;;;;9.80;56.43;98503.78;4985374;28;20042;-91
2022/04/07 12:51:33;;;;;;;8.43;1.20;;;;;;;9.78;54.46;98505.63;4976360;28;20397;-91
2022/04/07 12:54:13;;;;;;;5.57;1.02;;;;;;;9.71;55.83;98487.00;4985404;28;20031;-90
2022/04/07 12:56:41;;;;;;;9.70;1.48;;;;;;;9.65;55.53;98489.97;4983911;28;20038;-91
2022/04/07 12:59:10;;;;;;;7.75;1.50;;;;;;;9.71;54.95;98501.75;4985421;28;20045;-90
2022/04/07 13:01:37;;;;;;;8.82;1.20;;;;;;;9.63;55.02;98490.97;4984856;28;20525;-89
2022/04/07 13:04:04;;;;;;;9.77;1.30;;;;;;;9.72;54.38;98503.44;4986961;28;20042;-90
2022/04/07 13:06:32;;;;;;;7.43;1.27;;;;;;;9.57;55.39;98503.41;4985414;28;20082;-90
2022/04/07 13:08:57;;;;;;;8.00;1.10;;;;;;;9.60;56.84;98504.16;4979819;28;20034;-90
2022/04/07 13:11:32;;;;;;;6.60;1.40;;;;;;;9.66;56.36;98506.38;4981139;28;21525;-93
2022/04/07 13:13:58;;;;;;;10.43;1.20;;;;;;;9.71;55.30;98493.97;4979941;28;20057;-90
2022/04/07 13:16:23;;;;;;;6.22;1.20;;;;;;;9.71;54.90;98499.16;4982158;28;20038;-91
2022/04/07 13:18:48;;;;;;;8.07;1.55;;;;;;;9.70;55.38;98497.50;4987556;28;20034;-96
2022/04/07 13:23:47;;;;;;;9.27;1.60;;;;;;;9.75;55.09;98526.59;4962512;28;20066;-93
2022/04/07 13:26:15;;;;;;;10.60;1.42;;;;;;;9.72;54.53;98527.63;4961156;28;20034;-90
2022/04/07 13:28:40;;;;;;;7.43;1.05;;;;;;;9.80;53.74;98513.34;4963538;28;20031;-90
2022/04/07 13:31:07;;;;;;;5.72;1.00;;;;;;;9.86;53.36;98523.34;4962965;28;20050;-90
2022/04/07 13:33:33;;;;;;;8.20;1.10;;;;;;;9.92;53.11;98519.53;4962680;28;20054;-91
2022/04/07 13:35:58;;;;;;;6.55;1.10;;;;;;;10.00;53.66;98530.31;4964274;28;20517;-93
2022/04/07 13:38:24;;;;;;;5.45;1.08;;;;;;;10.04;53.13;98521.41;4963169;28;20035;-90
2022/04/07 13:40:57;;;;;;;6.40;1.42;;;;;;;10.07;52.91;98536.81;4963480;28;20581;-92
2022/04/07 13:43:22;;;;;;;7.45;1.30;;;;;;;10.16;52.64;98520.66;4963597;28;20085;-93
2022/04/07 13:45:48;;;;;;;7.35;1.25;;;;;;;10.16;52.12;98510.28;4944338;28;20035;-91
2022/04/07 13:48:13;;;;;;;8.65;1.17;;;;;;;10.13;52.79;98520.84;4961849;28;20114;-90
2022/04/07 13:50:40;;;;;;;7.75;1.27;;;;;;;10.13;53.97;98509.63;4962820;28;20031;-93
2022/04/07 13:53:08;;;;;;;8.93;1.30;;;;;;;10.13;55.11;98531.25;4960567;28;20046;-95
2022/04/07 13:55:36;;;;;;;10.55;1.48;;;;;;;9.95;58.32;98519.38;4962826;28;20027;-93
2022/04/07 13:58:22;;;;;;;7.45;1.27;;;;;;;9.89;57.34;98536.16;4969455;28;20034;-95
2022/04/07 14:00:50;;;;;;;11.35;2.30;;;;;;;9.77;57.34;98535.13;4963949;28;20540;-93
2022/04/07 14:03:25;;;;;;;;;;;;;;;;;;;;;
2022/04/07 14:05:54;;;;;;;6.28;1.00;;;;;;;9.66;58.86;98546.16;4962911;28;20034;-92
2022/04/07 14:08:20;;;;;;;10.63;1.67;;;;;;;9.61;58.30;98548.19;4967252;28;20469;-92
2022/04/07 14:11:23;;;;;;;8.40;1.48;;;;;;;9.68;58.05;98553.88;4976112;28;20094;-89
2022/04/07 14:13:54;;;;;;;;;;;;;;;9.65;57.88;98556.63;5538725;23;20066;-88